Mendola Village, Kentucky
Current Conditions -  °F | °C
As of 7:55 AM on Wednesday 26 Nov 2014 (Local Time) from KSJS Reporting Station
Broken Clouds Broken Clouds  
Wind Chill: 36°   Ceiling: 4800
Heat Index: 36°   Visibility: 10mi
Dew Point: 30°   Wind: 3mph
Humidity: 80%   Direction: 340°NNW
Pressure: 30.03"   Gusts: NA
Location:  37.7639°N, 82.7875°W
Report Text: KSJS 261255Z AUTO 34003KT 10SM BKN048 02/M01 A3003 RMK AO2 T00221010
Loading
Personal Weather Stations






























Interactive Weather Map New forecast layout! Learn more

10-Day Weather Forecast

Advertisements
Track Severe Weather on mobile